Time;durP1;ratioP1;P1;durP2;ratioP2;P2;SDS_P1;SDS_P2;PMS_P1;PMS_P2;Temp;Humidity;BMP_temperature;BMP_pressure;BME280_temperature;BME280_humidity;BME280_pressure;Samples;Min_cycle;Max_cycle;Signal;HPM_P1;HPM_P2
2022/03/06 00:01:25;;;;;;;;;;;-0.20;99.90;;;;;;4763536;30;19981;-78
2022/03/06 00:03:51;;;;;;;;;;;-0.20;99.90;;;;;;4770519;30;19960;-78
2022/03/06 00:06:16;;;;;;;;;;;-0.20;99.90;;;;;;4752004;30;19957;-78
2022/03/06 00:08:42;;;;;;;;;;;-0.20;99.90;;;;;;4752214;30;19922;-78
2022/03/06 00:11:08;;;;;;;;;;;-0.20;99.90;;;;;;4760711;30;19971;-78
2022/03/06 00:13:34;;;;;;;;;;;-0.10;99.90;;;;;;4770352;30;20024;-78
2022/03/06 00:16:00;;;;;;;;;;;-0.10;99.90;;;;;;4770723;30;19922;-78
2022/03/06 00:18:25;;;;;;;;;;;-0.10;99.90;;;;;;4769927;30;19921;-78
2022/03/06 00:20:52;;;;;;;;;;;0.00;99.90;;;;;;4762168;30;19922;-78
2022/03/06 00:23:17;;;;;;;;;;;0.00;99.90;;;;;;4781865;29;19933;-78
2022/03/06 00:25:43;;;;;;;;;;;0.00;99.90;;;;;;4781747;29;19921;-78
2022/03/06 00:28:08;;;;;;;;;;;0.10;99.90;;;;;;4781616;30;20016;-78
2022/03/06 00:30:34;;;;;;;;;;;0.10;99.90;;;;;;4781335;29;19922;-78
2022/03/06 00:32:59;;;;;;;;;;;0.10;99.90;;;;;;4781892;29;19926;-78
2022/03/06 00:35:28;;;;;;;;;;;0.10;99.90;;;;;;4781407;30;19922;-78
2022/03/06 00:37:54;;;;;;;;;;;0.10;99.90;;;;;;4781464;29;19972;-78
2022/03/06 00:40:20;;;;;;;;;;;0.20;99.90;;;;;;4780979;30;20279;-78
2022/03/06 00:42:45;;;;;;;;;;;0.20;99.90;;;;;;4781312;30;19944;-78
2022/03/06 00:45:10;;;;;;;;;;;0.20;99.90;;;;;;4781390;30;20008;-77
2022/03/06 00:47:36;;;;;;;;;;;0.20;99.90;;;;;;4781066;30;19950;-78
2022/03/06 00:50:02;;;;;;;;;;;0.30;99.90;;;;;;4784022;30;19929;-78
2022/03/06 00:52:28;;;;;;;;;;;0.30;99.90;;;;;;4769453;30;20259;-78
2022/03/06 00:54:53;;;;;;;;;;;0.30;99.90;;;;;;4769516;30;20005;-78
2022/03/06 00:57:19;;;;;;;;;;;0.30;99.90;;;;;;4756648;30;19932;-78
2022/03/06 00:59:44;;;;;;;;;;;0.30;99.90;;;;;;4781366;30;19929;-78
2022/03/06 01:02:10;;;;;;;;;;;0.30;99.90;;;;;;4780836;29;20409;-78
2022/03/06 01:04:36;;;;;;;;;;;0.30;99.90;;;;;;4766525;30;20005;-78
2022/03/06 01:07:02;;;;;;;;;;;0.30;99.90;;;;;;4781142;30;19922;-78
2022/03/06 01:09:27;;;;;;;;;;;0.30;99.90;;;;;;4781011;30;20385;-78
2022/03/06 01:11:53;;;;;;;;;;;0.30;99.90;;;;;;4780781;29;20064;-78
2022/03/06 01:14:18;;;;;;;;;;;0.30;99.90;;;;;;4780845;30;20282;-78
2022/03/06 01:16:44;;;;;;;;;;;0.40;99.90;;;;;;4752513;30;19929;-78
2022/03/06 01:19:10;;;;;;;;;;;0.40;99.90;;;;;;4780574;30;19926;-78
2022/03/06 01:21:35;;;;;;;;;;;0.40;99.90;;;;;;4750991;30;19935;-78
2022/03/06 01:24:01;;;;;;;;;;;0.40;99.90;;;;;;4768686;30;19928;-78
2022/03/06 01:26:26;;;;;;;;;;;0.40;99.90;;;;;;4768891;30;19922;-78
2022/03/06 01:28:52;;;;;;;;;;;0.40;99.90;;;;;;4753954;30;19921;-78
2022/03/06 01:31:17;;;;;;;;;;;0.40;99.90;;;;;;4756025;30;19922;-77
2022/03/06 01:33:43;;;;;;;;;;;0.40;99.90;;;;;;4780696;30;20353;-78
2022/03/06 01:36:08;;;;;;;;;;;0.50;99.90;;;;;;4780354;29;19922;-78
2022/03/06 01:38:34;;;;;;;;;;;0.50;99.90;;;;;;4780473;29;19922;-78
2022/03/06 01:40:59;;;;;;;;;;;0.50;99.90;;;;;;4765434;30;20404;-78
2022/03/06 01:43:25;;;;;;;;;;;0.40;99.90;;;;;;4780381;29;19926;-78
2022/03/06 01:45:50;;;;;;;;;;;0.50;99.90;;;;;;4780528;30;20275;-78
2022/03/06 01:48:16;;;;;;;;;;;0.50;99.90;;;;;;4780199;30;19929;-78
2022/03/06 01:50:41;;;;;;;;;;;0.50;99.90;;;;;;4780242;29;19922;-78
2022/03/06 01:53:08;;;;;;;;;;;0.50;99.90;;;;;;4780270;30;19962;-78
2022/03/06 01:55:35;;;;;;;;;;;0.50;99.90;;;;;;4735906;30;20001;-78
2022/03/06 01:58:02;;;;;;;;;;;0.50;99.90;;;;;;4751892;30;20032;-78
2022/03/06 02:00:30;;;;;;;;;;;0.60;99.90;;;;;;4779965;29;19929;-78
2022/03/06 02:02:55;;;;;;;;;;;0.60;99.90;;;;;;4779921;30;19956;-78
2022/03/06 02:05:21;;;;;;;;;;;0.60;99.90;;;;;;4765413;30;19922;-78
2022/03/06 02:07:47;;;;;;;;;;;0.60;99.90;;;;;;4780895;30;20013;-78
2022/03/06 02:10:14;;;;;;;;;;;0.60;99.90;;;;;;4767659;30;19929;-78
2022/03/06 02:12:40;;;;;;;;;;;0.60;99.90;;;;;;4767956;30;19922;-78
2022/03/06 02:15:07;;;;;;;;;;;0.70;99.90;;;;;;4767337;30;19922;-78
2022/03/06 02:17:32;;;;;;;;;;;0.60;99.90;;;;;;4767759;30;19922;-78
2022/03/06 02:19:59;;;;;;;;;;;0.70;99.90;;;;;;4752741;30;19929;-78
2022/03/06 02:22:26;;;;;;;;;;;0.70;99.90;;;;;;4779501;30;19926;-78
2022/03/06 02:24:52;;;;;;;;;;;0.70;99.90;;;;;;4779771;30;19948;-78
2022/03/06 02:27:18;;;;;;;;;;;0.70;99.90;;;;;;4779628;29;19922;-78
2022/03/06 02:29:43;;;;;;;;;;;0.70;99.90;;;;;;4779586;30;20286;-78
2022/03/06 02:32:10;;;;;;;;;;;0.70;99.90;;;;;;4779500;29;19929;-78
2022/03/06 02:34:39;;;;;;;;;;;0.70;99.90;;;;;;4779704;30;19929;-78
2022/03/06 02:37:04;;;;;;;;;;;0.70;99.90;;;;;;4779223;30;19929;-78
2022/03/06 02:39:30;;;;;;;;;;;0.70;99.90;;;;;;4780036;29;19926;-78
2022/03/06 02:41:55;;;;;;;;;;;0.80;99.90;;;;;;4779420;30;19970;-78
2022/03/06 02:44:21;;;;;;;;;;;0.80;99.90;;;;;;4779968;30;20007;-78
2022/03/06 02:46:47;;;;;;;;;;;0.80;99.90;;;;;;4764484;30;20391;-78
2022/03/06 02:49:15;;;;;;;;;;;0.80;99.90;;;;;;4779870;29;19922;-78
2022/03/06 02:51:41;;;;;;;;;;;0.80;99.90;;;;;;4779589;30;20263;-78
2022/03/06 02:54:07;;;;;;;;;;;0.80;99.90;;;;;;4779487;30;19929;-78
2022/03/06 02:56:33;;;;;;;;;;;0.80;99.90;;;;;;4779206;30;20481;-78
2022/03/06 02:58:59;;;;;;;;;;;0.80;99.90;;;;;;4750165;30;19922;-78
2022/03/06 03:01:25;;;;;;;;;;;0.80;99.90;;;;;;4779067;30;19922;-78
2022/03/06 03:03:50;;;;;;;;;;;0.80;99.90;;;;;;4779451;30;19933;-78
2022/03/06 03:06:16;;;;;;;;;;;0.80;99.90;;;;;;4779165;30;19926;-78
2022/03/06 03:08:42;;;;;;;;;;;0.70;99.90;;;;;;4779505;30;19965;-78
2022/03/06 03:11:07;;;;;;;;;;;0.80;99.90;;;;;;4764498;30;19977;-78
2022/03/06 03:13:33;;;;;;;;;;;0.80;99.90;;;;;;4779348;30;19985;-78
2022/03/06 03:15:58;;;;;;;;;;;0.80;99.90;;;;;;4779525;30;19945;-78
2022/03/06 03:18:24;;;;;;;;;;;0.80;99.90;;;;;;4779318;30;19953;-78
2022/03/06 03:20:49;;;;;;;;;;;0.70;99.90;;;;;;4779101;30;19949;-78
2022/03/06 03:23:15;;;;;;;;;;;0.70;99.90;;;;;;4779271;30;20301;-78
2022/03/06 03:25:40;;;;;;;;;;;0.70;99.90;;;;;;4780113;29;20396;-77
2022/03/06 03:28:06;;;;;;;;;;;0.60;99.90;;;;;;4782682;30;20003;-78
2022/03/06 03:30:31;;;;;;;;;;;0.60;99.90;;;;;;4782179;30;19929;-78
2022/03/06 03:32:57;;;;;;;;;;;0.60;99.90;;;;;;4782529;30;20010;-78
2022/03/06 03:35:22;;;;;;;;;;;0.60;99.90;;;;;;4782488;30;19922;-78
2022/03/06 03:37:48;;;;;;;;;;;0.60;99.90;;;;;;4782506;29;20013;-78
2022/03/06 03:40:13;;;;;;;;;;;0.60;99.90;;;;;;4782332;30;19929;-78
2022/03/06 03:42:39;;;;;;;;;;;0.60;99.90;;;;;;4781981;29;20032;-78
2022/03/06 03:45:04;;;;;;;;;;;0.60;99.90;;;;;;4782477;30;19922;-78
2022/03/06 03:47:30;;;;;;;;;;;0.70;99.90;;;;;;4782284;30;20386;-78
2022/03/06 03:49:55;;;;;;;;;;;0.60;99.90;;;;;;4782120;29;20010;-78
2022/03/06 03:52:21;;;;;;;;;;;0.60;99.90;;;;;;4782187;30;20340;-77
2022/03/06 03:54:46;;;;;;;;;;;0.60;99.90;;;;;;4782296;30;19922;-77
2022/03/06 03:57:13;;;;;;;;;;;0.50;99.90;;;;;;4782493;30;19971;-77
2022/03/06 03:59:39;;;;;;;;;;;0.40;99.90;;;;;;4767131;30;19922;-78
2022/03/06 04:02:05;;;;;;;;;;;0.40;99.90;;;;;;4781994;30;20279;-78
2022/03/06 04:04:30;;;;;;;;;;;0.30;99.90;;;;;;4782036;30;19926;-78
2022/03/06 04:06:57;;;;;;;;;;;0.30;99.90;;;;;;4782009;30;19944;-78
2022/03/06 04:09:23;;;;;;;;;;;0.30;99.90;;;;;;4767090;30;20384;-78
2022/03/06 04:11:48;;;;;;;;;;;0.20;99.90;;;;;;4781746;30;19922;-78
2022/03/06 04:14:13;;;;;;;;;;;0.10;99.90;;;;;;4782218;30;19991;-78
2022/03/06 04:16:39;;;;;;;;;;;0.10;99.90;;;;;;4781979;30;19929;-78
2022/03/06 04:19:04;;;;;;;;;;;0.00;99.90;;;;;;4781702;30;20016;-77
2022/03/06 04:21:30;;;;;;;;;;;0.00;99.90;;;;;;4781728;30;19925;-78
2022/03/06 04:23:55;;;;;;;;;;;0.00;99.90;;;;;;4781970;29;20378;-78
2022/03/06 04:26:21;;;;;;;;;;;-0.10;99.90;;;;;;4781346;30;19944;-78
2022/03/06 04:28:46;;;;;;;;;;;-0.10;99.90;;;;;;4752122;30;20028;-78
2022/03/06 04:31:12;;;;;;;;;;;-0.10;99.90;;;;;;4766730;30;19929;-78
2022/03/06 04:33:38;;;;;;;;;;;-0.10;99.90;;;;;;4769494;30;19932;-78
2022/03/06 04:36:06;;;;;;;;;;;-0.20;99.90;;;;;;4769230;30;20012;-77
2022/03/06 04:38:31;;;;;;;;;;;-0.20;99.90;;;;;;4768882;30;19928;-77
2022/03/06 04:40:57;;;;;;;;;;;-0.30;99.90;;;;;;4756446;30;19922;-78
2022/03/06 04:43:24;;;;;;;;;;;-0.30;99.90;;;;;;4781163;30;19930;-78
2022/03/06 04:45:49;;;;;;;;;;;-0.30;99.90;;;;;;4781324;30;20008;-78
2022/03/06 04:48:15;;;;;;;;;;;-0.30;99.90;;;;;;4781447;30;20016;-78
2022/03/06 04:50:40;;;;;;;;;;;-0.30;99.90;;;;;;4781007;30;19957;-78
2022/03/06 04:53:06;;;;;;;;;;;-0.30;99.90;;;;;;4781348;30;19922;-78
2022/03/06 04:55:31;;;;;;;;;;;-0.30;99.90;;;;;;4781355;29;19968;-75
2022/03/06 04:57:57;;;;;;;;;;;-0.30;99.90;;;;;;4780814;29;20350;-75
2022/03/06 05:00:22;;;;;;;;;;;-0.40;99.90;;;;;;4780701;30;19922;-75
2022/03/06 05:02:48;;;;;;;;;;;-0.30;99.90;;;;;;4780520;30;19926;-75
2022/03/06 05:05:13;;;;;;;;;;;-0.40;99.90;;;;;;4751127;30;19929;-75
2022/03/06 05:07:39;;;;;;;;;;;-0.40;99.90;;;;;;4751256;30;19922;-75
2022/03/06 05:10:09;;;;;;;;;;;-0.40;99.90;;;;;;4760497;30;19922;-75
2022/03/06 05:12:35;;;;;;;;;;;-0.50;99.90;;;;;;4768742;30;19969;-75
2022/03/06 05:15:01;;;;;;;;;;;-0.40;99.90;;;;;;4768825;30;20044;-75
2022/03/06 05:17:26;;;;;;;;;;;-0.50;99.90;;;;;;4756240;30;19933;-75
2022/03/06 05:19:52;;;;;;;;;;;-0.50;99.90;;;;;;4754735;30;20455;-75
2022/03/06 05:22:17;;;;;;;;;;;-0.40;99.90;;;;;;4780432;29;19933;-75
2022/03/06 05:24:43;;;;;;;;;;;-0.50;99.90;;;;;;4765714;30;19922;-75
2022/03/06 05:27:08;;;;;;;;;;;-0.50;99.90;;;;;;4780381;29;20375;-75
2022/03/06 05:29:33;;;;;;;;;;;-0.60;99.90;;;;;;4780434;30;19922;-75
2022/03/06 05:31:59;;;;;;;;;;;-0.60;99.90;;;;;;4780147;29;19926;-75
2022/03/06 05:34:24;;;;;;;;;;;-0.60;99.90;;;;;;4780396;30;19991;-75
2022/03/06 05:36:50;;;;;;;;;;;-0.50;99.90;;;;;;4780593;30;19999;-75
2022/03/06 05:39:15;;;;;;;;;;;-0.60;99.90;;;;;;4782770;30;19965;-75
2022/03/06 05:41:41;;;;;;;;;;;-0.60;99.90;;;;;;4768015;30;19948;-75
2022/03/06 05:44:06;;;;;;;;;;;-0.60;99.90;;;;;;4768688;30;20008;-75
2022/03/06 05:46:32;;;;;;;;;;;-0.60;99.90;;;;;;4761217;30;19922;-75
2022/03/06 05:48:57;;;;;;;;;;;-0.70;99.90;;;;;;4779354;29;19930;-75
2022/03/06 05:51:23;;;;;;;;;;;-0.70;99.90;;;;;;4780137;30;19922;-75
2022/03/06 05:53:48;;;;;;;;;;;-0.70;99.90;;;;;;4780567;30;19961;-75
2022/03/06 05:56:14;;;;;;;;;;;-0.70;99.90;;;;;;4779933;30;19922;-75
2022/03/06 05:58:39;;;;;;;;;;;-0.80;99.90;;;;;;4780139;29;19922;-75
2022/03/06 06:01:04;;;;;;;;;;;-0.80;99.90;;;;;;4779713;29;20440;-75
2022/03/06 06:03:31;;;;;;;;;;;-0.80;99.90;;;;;;4765080;30;19927;-75
2022/03/06 06:05:56;;;;;;;;;;;-0.80;99.90;;;;;;4780066;30;20012;-75
2022/03/06 06:08:22;;;;;;;;;;;-0.80;99.90;;;;;;4780080;29;20068;-75
2022/03/06 06:10:47;;;;;;;;;;;-0.80;99.90;;;;;;4779657;29;19977;-75
2022/03/06 06:13:15;;;;;;;;;;;-0.90;99.90;;;;;;4779969;30;19929;-75
2022/03/06 06:15:43;;;;;;;;;;;-0.90;99.90;;;;;;4779528;30;19926;-75
2022/03/06 06:18:10;;;;;;;;;;;-0.80;99.90;;;;;;4779779;30;20377;-75
2022/03/06 06:20:36;;;;;;;;;;;-0.80;99.90;;;;;;4779700;30;19957;-75
2022/03/06 06:23:03;;;;;;;;;;;-0.90;99.90;;;;;;4779849;30;20313;-75
2022/03/06 06:25:28;;;;;;;;;;;-0.80;99.90;;;;;;4780118;30;20403;-75
2022/03/06 06:27:53;;;;;;;;;;;-0.90;99.90;;;;;;4779960;30;19952;-75
2022/03/06 06:30:19;;;;;;;;;;;-0.90;99.90;;;;;;4779399;30;19933;-75
2022/03/06 06:32:44;;;;;;;;;;;-0.90;99.90;;;;;;4779410;30;19944;-75
2022/03/06 06:35:10;;;;;;;;;;;-0.80;99.90;;;;;;4750047;30;19933;-75
2022/03/06 06:37:35;;;;;;;;;;;-0.80;99.90;;;;;;4750009;30;20278;-75
2022/03/06 06:40:01;;;;;;;;;;;-0.80;99.90;;;;;;4749983;30;20338;-75
2022/03/06 06:42:27;;;;;;;;;;;-0.70;99.90;;;;;;4779332;29;20007;-75
2022/03/06 06:44:52;;;;;;;;;;;-0.60;99.90;;;;;;4764734;30;19922;-75
2022/03/06 06:47:18;;;;;;;;;;;-0.60;99.90;;;;;;4779590;29;20309;-75
2022/03/06 06:49:43;;;;;;;;;;;-0.50;99.90;;;;;;4779357;30;19922;-75
2022/03/06 06:52:08;;;;;;;;;;;-0.40;99.90;;;;;;4779069;30;20317;-75
2022/03/06 06:54:34;;;;;;;;;;;-0.40;99.90;;;;;;4779765;30;19929;-75
2022/03/06 06:56:59;;;;;;;;;;;-0.40;99.90;;;;;;4779458;30;20207;-75
2022/03/06 06:59:25;;;;;;;;;;;-0.30;99.90;;;;;;4781154;30;20409;-75
2022/03/06 07:01:50;;;;;;;;;;;-0.30;99.90;;;;;;4768422;30;19990;-75
2022/03/06 07:04:17;;;;;;;;;;;-0.30;99.90;;;;;;4771091;30;19922;-75
2022/03/06 07:06:42;;;;;;;;;;;-0.30;99.90;;;;;;4770863;30;19929;-75
2022/03/06 07:09:08;;;;;;;;;;;-0.20;99.90;;;;;;4762443;30;19921;-75
2022/03/06 07:11:33;;;;;;;;;;;-0.20;99.90;;;;;;4768263;30;19971;-75
2022/03/06 07:13:59;;;;;;;;;;;-0.20;99.90;;;;;;4770858;30;19922;-75
2022/03/06 07:16:24;;;;;;;;;;;-0.20;99.90;;;;;;4770849;30;19976;-75
2022/03/06 07:18:50;;;;;;;;;;;-0.20;99.90;;;;;;4770729;30;20004;-75
2022/03/06 07:21:15;;;;;;;;;;;-0.10;99.90;;;;;;4759386;30;19926;-75
2022/03/06 07:23:41;;;;;;;;;;;-0.10;99.90;;;;;;4782684;29;19962;-75
2022/03/06 07:26:06;;;;;;;;;;;-0.10;99.90;;;;;;4782556;29;19965;-75
2022/03/06 07:28:32;;;;;;;;;;;-0.10;99.90;;;;;;4782944;30;20411;-75
2022/03/06 08:14:59;;;;;;;;;;;1.20;99.90;;;;;;4888459;24;20409;-77
2022/03/06 08:17:24;;;;;;;;;;;1.30;99.90;;;;;;4762648;30;19922;-77
2022/03/06 08:19:50;;;;;;;;;;;1.40;99.90;;;;;;4758963;30;19930;-77
2022/03/06 08:22:15;;;;;;;;;;;1.50;99.90;;;;;;4747849;30;20390;-78
2022/03/06 08:24:41;;;;;;;;;;;1.60;99.90;;;;;;4751477;30;19944;-77
2022/03/06 08:27:06;;;;;;;;;;;1.70;99.90;;;;;;4760299;30;19966;-77
2022/03/06 08:29:32;;;;;;;;;;;1.80;99.90;;;;;;4763010;30;19922;-78
2022/03/06 08:31:58;;;;;;;;;;;1.90;99.90;;;;;;4763363;30;19966;-78
2022/03/06 08:34:23;;;;;;;;;;;1.90;99.90;;;;;;4763691;30;19922;-78
2022/03/06 08:36:49;;;;;;;;;;;2.10;99.90;;;;;;4763975;30;19922;-79
2022/03/06 08:39:14;;;;;;;;;;;2.20;99.90;;;;;;4768053;30;19922;-79
2022/03/06 08:41:40;;;;;;;;;;;2.30;99.90;;;;;;4765468;30;20021;-79
2022/03/06 08:44:05;;;;;;;;;;;2.40;99.90;;;;;;4743855;30;19922;-79
2022/03/06 08:46:31;;;;;;;;;;;2.50;99.90;;;;;;4744195;30;19922;-80
2022/03/06 08:48:56;;;;;;;;;;;2.60;99.90;;;;;;4756949;30;19930;-80
2022/03/06 08:51:21;;;;;;;;;;;2.70;99.90;;;;;;4756348;30;19922;-80
2022/03/06 08:53:47;;;;;;;;;;;2.90;99.90;;;;;;4772913;30;19971;-80
2022/03/06 08:56:12;;;;;;;;;;;3.00;99.90;;;;;;4774367;30;19956;-79
2022/03/06 08:58:38;;;;;;;;;;;3.10;99.90;;;;;;4765200;30;19930;-79
2022/03/06 09:01:03;;;;;;;;;;;3.20;99.90;;;;;;4754734;30;20390;-79
2022/03/06 09:03:29;;;;;;;;;;;3.30;99.90;;;;;;4758120;30;19933;-79
2022/03/06 09:05:54;;;;;;;;;;;3.40;99.90;;;;;;4771784;30;19957;-79
2022/03/06 09:08:20;;;;;;;;;;;3.60;99.90;;;;;;4758338;30;19922;-79
2022/03/06 09:10:45;;;;;;;;;;;3.60;99.90;;;;;;4767976;30;19927;-79
2022/03/06 09:13:11;;;;;;;;;;;3.70;99.90;;;;;;4751169;30;19923;-80
2022/03/06 09:15:37;;;;;;;;;;;3.70;99.90;;;;;;4751430;30;19930;-79
2022/03/06 09:18:03;;;;;;;;;;;3.70;99.90;;;;;;4751232;30;19923;-79
2022/03/06 09:20:28;;;;;;;;;;;4.00;99.90;;;;;;4760764;30;19922;-79
2022/03/06 09:22:54;;;;;;;;;;;4.00;99.90;;;;;;4753581;30;19932;-80
2022/03/06 09:25:19;;;;;;;;;;;4.00;99.90;;;;;;4767916;30;20306;-80
2022/03/06 09:27:45;;;;;;;;;;;4.00;99.90;;;;;;4766369;30;20009;-79
2022/03/06 09:30:11;;;;;;;;;;;4.10;99.90;;;;;;4764684;30;19929;-80
2022/03/06 09:32:36;;;;;;;;;;;4.20;99.90;;;;;;4749723;30;19922;-79
2022/03/06 09:35:02;;;;;;;;;;;4.20;99.90;;;;;;4763202;30;19930;-79
2022/03/06 09:37:28;;;;;;;;;;;4.30;99.90;;;;;;4762780;30;19922;-79
2022/03/06 09:39:53;;;;;;;;;;;4.40;99.90;;;;;;4747911;30;20350;-79
2022/03/06 09:42:19;;;;;;;;;;;4.40;99.90;;;;;;4765462;30;19938;-79
2022/03/06 09:44:45;;;;;;;;;;;4.40;99.90;;;;;;4761569;30;20392;-79
2022/03/06 09:47:11;;;;;;;;;;;4.50;99.90;;;;;;4761165;30;19972;-79
2022/03/06 09:49:37;;;;;;;;;;;4.70;99.90;;;;;;4762630;30;19929;-79
2022/03/06 09:52:03;;;;;;;;;;;4.60;99.50;;;;;;4762246;30;19926;-79
2022/03/06 09:54:29;;;;;;;;;;;4.60;99.20;;;;;;4745962;30;19923;-79
2022/03/06 09:56:54;;;;;;;;;;;4.60;99.90;;;;;;4761520;30;19971;-79
2022/03/06 09:59:20;;;;;;;;;;;4.70;99.90;;;;;;4757692;30;19930;-79
2022/03/06 10:01:45;;;;;;;;;;;4.90;99.90;;;;;;4761723;30;19934;-79
2022/03/06 10:04:29;;;;;;;;;;;4.90;99.90;;;;;;4762505;30;19923;-79
2022/03/06 10:06:59;;;;;;;;;;;4.90;99.90;;;;;;4744596;30;19929;-79
2022/03/06 10:09:25;;;;;;;;;;;4.80;99.90;;;;;;4744598;30;20382;-79
2022/03/06 10:11:52;;;;;;;;;;;4.80;99.90;;;;;;4729919;30;19929;-78
2022/03/06 10:14:33;;;;;;;;;;;4.80;99.90;;;;;;4729460;30;19923;-78
2022/03/06 10:17:12;;;;;;;;;;;4.90;98.60;;;;;;4764447;30;19922;-79
2022/03/06 10:19:48;;;;;;;;;;;5.00;99.10;;;;;;4751460;30;20650;-78
2022/03/06 10:22:14;;;;;;;;;;;5.10;98.00;;;;;;4761593;30;20374;-78
2022/03/06 10:24:56;;;;;;;;;;;5.20;98.30;;;;;;4749076;30;19930;-78
2022/03/06 10:27:40;;;;;;;;;;;5.30;96.90;;;;;;4750757;30;19961;-78
2022/03/06 10:30:22;;;;;;;;;;;5.50;96.10;;;;;;4747073;30;19929;-79
2022/03/06 10:32:47;;;;;;;;;;;5.60;96.00;;;;;;4761620;30;19923;-78
2022/03/06 10:35:13;;;;;;;;;;;5.60;92.70;;;;;;4756542;30;19989;-79
2022/03/06 10:37:38;;;;;;;;;;;5.70;93.10;;;;;;4761609;30;19922;-78
2022/03/06 10:40:04;;;;;;;;;;;5.80;92.20;;;;;;4757209;30;19923;-79
2022/03/06 10:42:29;;;;;;;;;;;5.80;94.90;;;;;;4748517;30;20409;-79
2022/03/06 10:44:55;;;;;;;;;;;5.90;94.30;;;;;;4749676;30;20283;-80
2022/03/06 10:47:21;;;;;;;;;;;6.00;96.30;;;;;;4757074;30;19930;-79
2022/03/06 10:49:59;;;;;;;;;;;6.20;95.50;;;;;;4760185;30;19968;-78
2022/03/06 10:52:25;;;;;;;;;;;6.40;94.70;;;;;;4750405;30;19922;-78
2022/03/06 10:54:58;;;;;;;;;;;6.50;90.70;;;;;;4744383;30;19922;-79
2022/03/06 10:57:23;;;;;;;;;;;6.50;87.70;;;;;;4750125;30;20445;-79
2022/03/06 10:59:49;;;;;;;;;;;6.50;88.10;;;;;;4740624;30;19992;-79
2022/03/06 11:02:15;;;;;;;;;;;6.50;85.30;;;;;;4762968;30;19942;-79
2022/03/06 11:04:42;;;;;;;;;;;6.60;77.10;;;;;;4760345;30;19922;-79
2022/03/06 11:07:07;;;;;;;;;;;6.70;83.60;;;;;;4746922;30;20290;-79
2022/03/06 11:09:33;;;;;;;;;;;6.80;78.40;;;;;;4761544;30;19926;-79
2022/03/06 11:11:59;;;;;;;;;;;6.80;85.50;;;;;;4746576;30;19962;-79
2022/03/06 11:14:24;;;;;;;;;;;6.80;77.60;;;;;;4746440;30;19923;-79
2022/03/06 11:16:50;;;;;;;;;;;6.80;87.80;;;;;;4750337;30;19922;-79
2022/03/06 11:19:15;;;;;;;;;;;7.00;92.50;;;;;;4760706;30;20355;-79
2022/03/06 11:21:43;;;;;;;;;;;7.20;87.00;;;;;;4746593;30;19976;-79
2022/03/06 11:24:10;;;;;;;;;;;7.40;84.50;;;;;;4731883;30;19923;-79
2022/03/06 11:26:54;;;;;;;;;;;7.60;87.50;;;;;;4746430;30;20461;-79
2022/03/06 11:29:22;;;;;;;;;;;7.70;76.50;;;;;;4752132;30;19932;-79
2022/03/06 11:31:48;;;;;;;;;;;7.60;71.90;;;;;;4762802;30;19930;-78
2022/03/06 11:34:24;;;;;;;;;;;7.40;78.90;;;;;;4750657;30;19977;-79
2022/03/06 11:36:50;;;;;;;;;;;7.40;78.30;;;;;;4750670;30;20022;-79
2022/03/06 11:39:31;;;;;;;;;;;7.60;80.80;;;;;;4759285;30;20008;-78
2022/03/06 11:41:57;;;;;;;;;;;7.50;82.00;;;;;;4761302;30;19926;-78
2022/03/06 11:44:33;;;;;;;;;;;7.60;71.10;;;;;;4743765;30;20310;-79
2022/03/06 11:46:59;;;;;;;;;;;7.60;73.10;;;;;;4754584;30;19922;-79
2022/03/06 11:49:32;;;;;;;;;;;7.70;70.00;;;;;;4753580;30;20298;-78
2022/03/06 11:51:57;;;;;;;;;;;7.70;77.50;;;;;;4759641;30;19926;-79
2022/03/06 11:54:24;;;;;;;;;;;7.80;70.80;;;;;;4781870;30;20302;-78
2022/03/06 11:56:54;;;;;;;;;;;7.90;78.80;;;;;;4764584;30;19983;-79
2022/03/06 11:59:21;;;;;;;;;;;7.90;83.10;;;;;;4746710;30;20037;-79
2022/03/06 12:01:47;;;;;;;;;;;7.90;68.00;;;;;;4747844;30;19931;-79
2022/03/06 12:04:25;;;;;;;;;;;7.90;70.30;;;;;;4767141;30;19948;-79
2022/03/06 12:06:52;;;;;;;;;;;8.00;72.60;;;;;;4754706;30;19922;-79
2022/03/06 12:09:25;;;;;;;;;;;8.00;73.40;;;;;;4763881;30;19922;-79
2022/03/06 12:11:52;;;;;;;;;;;8.00;70.90;;;;;;4741141;30;20017;-79
2022/03/06 12:14:21;;;;;;;;;;;8.00;70.00;;;;;;4735238;30;20012;-79
2022/03/06 12:17:10;;;;;;;;;;;8.00;71.40;;;;;;4757834;30;19952;-79
2022/03/06 12:19:42;;;;;;;;;;;8.10;70.00;;;;;;4755858;30;19922;-79
2022/03/06 12:22:20;;;;;;;;;;;8.00;73.80;;;;;;4762261;30;19965;-79
2022/03/06 12:24:47;;;;;;;;;;;7.80;81.60;;;;;;4762252;30;20367;-79
2022/03/06 12:27:13;;;;;;;;;;;7.70;77.30;;;;;;4752370;30;20336;-79
2022/03/06 12:29:45;;;;;;;;;;;7.40;76.20;;;;;;4750271;30;20046;-79
2022/03/06 12:32:29;;;;;;;;;;;7.30;82.40;;;;;;4755499;30;19923;-79
2022/03/06 12:34:59;;;;;;;;;;;7.30;89.70;;;;;;4763247;30;20016;-79
2022/03/06 12:37:25;;;;;;;;;;;7.20;90.20;;;;;;4748679;30;19957;-79
2022/03/06 12:39:50;;;;;;;;;;;7.20;90.00;;;;;;4752147;30;19922;-79
2022/03/06 12:42:32;;;;;;;;;;;7.60;93.40;;;;;;4762255;30;19932;-79
2022/03/06 12:45:00;;;;;;;;;;;7.60;82.10;;;;;;4763048;30;19929;-79
2022/03/06 12:47:26;;;;;;;;;;;7.50;84.30;;;;;;4750771;30;19922;-79
2022/03/06 12:49:53;;;;;;;;;;;7.50;77.20;;;;;;4764558;30;20010;-79
2022/03/06 12:52:19;;;;;;;;;;;7.40;79.20;;;;;;4753820;30;20374;-79
2022/03/06 12:54:46;;;;;;;;;;;7.40;90.40;;;;;;4763092;30;20019;-79
2022/03/06 12:57:11;;;;;;;;;;;7.60;89.10;;;;;;4761783;30;19922;-79
2022/03/06 12:59:41;;;;;;;;;;;7.60;87.90;;;;;;4751280;30;19922;-79
2022/03/06 13:02:10;;;;;;;;;;;7.40;87.80;;;;;;4762344;30;20005;-79
2022/03/06 13:04:36;;;;;;;;;;;7.30;82.80;;;;;;4762763;30;19928;-79
2022/03/06 13:07:02;;;;;;;;;;;7.60;86.60;;;;;;4761914;30;19922;-79
2022/03/06 13:09:30;;;;;;;;;;;8.40;79.40;;;;;;4735236;30;19922;-79
2022/03/06 13:11:56;;;;;;;;;;;9.10;70.10;;;;;;4735107;30;19961;-80
2022/03/06 13:14:26;;;;;;;;;;;9.70;65.10;;;;;;4737259;30;20583;-80
2022/03/06 13:16:55;;;;;;;;;;;9.60;63.70;;;;;;4762956;30;19923;-79
2022/03/06 13:19:21;;;;;;;;;;;9.30;64.70;;;;;;4752761;30;20021;-79
2022/03/06 13:21:47;;;;;;;;;;;8.90;69.00;;;;;;4758190;30;19922;-80
2022/03/06 13:24:15;;;;;;;;;;;8.60;71.70;;;;;;4766234;30;19922;-79
2022/03/06 13:26:41;;;;;;;;;;;8.80;71.00;;;;;;4764083;30;19965;-79
2022/03/06 13:29:12;;;;;;;;;;;9.20;71.60;;;;;;4752820;30;19930;-80
2022/03/06 13:31:45;;;;;;;;;;;9.20;65.50;;;;;;4734448;30;19922;-80
2022/03/06 13:34:13;;;;;;;;;;;8.80;67.20;;;;;;4735786;30;19923;-80
2022/03/06 13:36:39;;;;;;;;;;;8.40;72.40;;;;;;4760322;30;20447;-80
2022/03/06 13:39:15;;;;;;;;;;;8.40;90.00;;;;;;4762559;30;20022;-80
2022/03/06 13:41:54;;;;;;;;;;;8.40;80.50;;;;;;4762791;30;19923;-80
2022/03/06 13:44:20;;;;;;;;;;;8.20;87.30;;;;;;4763717;30;20351;-80
2022/03/06 13:46:46;;;;;;;;;;;8.20;84.70;;;;;;4751109;30;20022;-80
2022/03/06 13:49:16;;;;;;;;;;;8.10;90.00;;;;;;4762785;30;19931;-79
2022/03/06 13:51:42;;;;;;;;;;;8.00;90.40;;;;;;4747573;30;19926;-79
2022/03/06 13:54:08;;;;;;;;;;;7.80;92.70;;;;;;4762363;30;19972;-79
2022/03/06 13:56:35;;;;;;;;;;;7.80;94.70;;;;;;4762353;30;19926;-80
2022/03/06 13:59:01;;;;;;;;;;;8.10;93.50;;;;;;4762964;30;20382;-80
2022/03/06 14:01:27;;;;;;;;;;;8.50;92.50;;;;;;4762672;30;19929;-80
2022/03/06 14:04:00;;;;;;;;;;;8.70;87.30;;;;;;4775351;24;20309;-80
2022/03/06 14:06:32;;;;;;;;;;;8.90;85.10;;;;;;4750491;30;19926;-80
2022/03/06 14:08:58;;;;;;;;;;;9.40;79.40;;;;;;4751154;30;20370;-79
2022/03/06 14:11:23;;;;;;;;;;;10.10;69.40;;;;;;4749893;30;19969;-80
2022/03/06 14:13:51;;;;;;;;;;;10.10;66.30;;;;;;4742954;30;20405;-79
2022/03/06 14:16:17;;;;;;;;;;;9.70;69.30;;;;;;4717810;30;19958;-79
2022/03/06 14:18:47;;;;;;;;;;;9.20;73.40;;;;;;4733255;30;19945;-79
2022/03/06 14:21:23;;;;;;;;;;;8.70;75.00;;;;;;4732368;30;20403;-79
2022/03/06 14:23:53;;;;;;;;;;;8.90;85.40;;;;;;4732644;30;19972;-79
2022/03/06 14:26:20;;;;;;;;;;;9.70;72.70;;;;;;4732669;30;19926;-80
2022/03/06 14:28:50;;;;;;;;;;;10.10;69.80;;;;;;4733116;30;20298;-80
2022/03/06 14:31:15;;;;;;;;;;;9.90;68.80;;;;;;4732553;30;19922;-80
2022/03/06 14:33:40;;;;;;;;;;;9.40;73.70;;;;;;4733164;30;19922;-80
2022/03/06 14:36:06;;;;;;;;;;;8.80;78.30;;;;;;4732603;30;19923;-80
2022/03/06 14:38:31;;;;;;;;;;;8.60;86.30;;;;;;4732649;30;20045;-80
2022/03/06 14:40:57;;;;;;;;;;;8.70;88.50;;;;;;4762232;30;19922;-79
2022/03/06 14:43:23;;;;;;;;;;;9.20;82.50;;;;;;4763222;30;20391;-80
2022/03/06 14:45:48;;;;;;;;;;;9.50;78.70;;;;;;4762721;30;19930;-80
2022/03/06 14:48:14;;;;;;;;;;;9.90;77.20;;;;;;4763483;30;19929;-80
2022/03/06 14:50:39;;;;;;;;;;;10.10;70.20;;;;;;4763118;30;19922;-80
2022/03/06 14:53:04;;;;;;;;;;;9.60;71.30;;;;;;4762566;30;19922;-80
2022/03/06 14:55:30;;;;;;;;;;;9.10;81.40;;;;;;4762303;30;19930;-80
2022/03/06 14:57:56;;;;;;;;;;;9.40;79.60;;;;;;4733645;30;20289;-80
2022/03/06 15:00:21;;;;;;;;;;;9.70;78.00;;;;;;4733400;30;19923;-80
2022/03/06 15:02:47;;;;;;;;;;;9.40;77.30;;;;;;4733036;30;19925;-80
2022/03/06 15:05:12;;;;;;;;;;;9.30;83.20;;;;;;4733065;30;20391;-80
2022/03/06 15:07:38;;;;;;;;;;;9.60;80.50;;;;;;4736214;30;20048;-80